Flight Track Log - Related Links

Times and Time Zones

All times are in EDT time to prevent confusion due to time zone crossing. See the EJA930 flight status page for this flight to view local times or setup timezone preferences in your user account.

Time Position Orientation Groundspeed Altitude Reporting Facility
EDT Latitude Longitude Course Direction KTS MPH feet Rate Location/Type
Thu 05:55:34 AM 40.0025 -82.9072 285° West 176 203 1,200  Level Indianapolis Center
Thu 05:56:13 AM 40.0106 -82.9464 285° West 175 201 3,700 3,867 Climbing Indianapolis Center
Thu 05:57:04 AM 40.0492 -82.9447 North 225 259 7,000 3,124 Climbing Indianapolis Center
Thu 05:58:14 AM 40.0608 -82.8344 82° East 281 323 10,000 2,244 Climbing Indianapolis Center
Thu 05:59:15 AM 40.0719 -82.6989 84° East 374 430 11,900 1,686 Climbing Indianapolis Center
Thu 06:00:15 AM 40.0864 -82.5572 82° East 388 447 13,400 1,488 Climbing Indianapolis Center
Thu 06:01:16 AM 40.1006 -82.4119 83° East 400 460 14,900 1,537 Climbing Indianapolis Center
Thu 06:02:16 AM 40.1147 -82.2639 83° East 406 467 16,500 1,537 Climbing Indianapolis Center
Thu 06:03:17 AM 40.1275 -82.1172 83° East 404 465 18,000 1,488 Climbing Indianapolis Center
Thu 06:04:17 AM 40.1411 -81.9653 83° East 413 475 19,500 1,736 Climbing Indianapolis Center
Thu 06:05:18 AM 40.1550 -81.8186 83° East 407 468 21,500 1,918 Climbing Indianapolis Center
Thu 06:06:19 AM 40.1669 -81.6850 83° East 402 463 23,400 1,934 Climbing Indianapolis Center
Thu 06:07:19 AM 40.1794 -81.5389 84° East 401 461 25,400 1,636 Climbing Indianapolis Center
Thu 06:08:20 AM 40.1919 -81.3922 84° East 404 465 26,700 1,240 Climbing Indianapolis Center
Thu 06:09:20 AM 40.2050 -81.2369 84° East 423 487 27,900 1,222 Climbing Indianapolis Center
Thu 06:10:08 AM 40.2203 -81.0889 82° East 420 483 28,900 1,222 Climbing Cleveland Center
Thu 06:11:08 AM 40.2333 -80.9231 84° East 441 507 30,100 1,200 Climbing Cleveland Center
Thu 06:12:08 AM 40.2483 -80.7572 83° East 452 520 31,300 1,200 Climbing Cleveland Center
Thu 06:13:08 AM 40.2611 -80.5858 84° East 463 533 32,500 1,200 Climbing Cleveland Center
Thu 06:14:08 AM 40.3025 -80.4117 73° East 474 545 33,700 1,150 Climbing Cleveland Center
Thu 06:15:08 AM 40.3397 -80.2589 72° East 484 557 34,800 1,150 Climbing Cleveland Center
Thu 06:16:08 AM 40.3892 -80.0842 70° East 492 566 36,000 1,100 Climbing Cleveland Center
Thu 06:17:08 AM 40.4361 -79.9011 71° East 508 585 37,000 500 Climbing Cleveland Center
Thu 06:18:08 AM 40.4831 -79.7258 71° East 508 585 37,000  Level Cleveland Center
Thu 06:19:08 AM 40.5314 -79.5369 71° East 520 598 37,000  Level Cleveland Center
Thu 06:20:08 AM 40.5797 -79.3503 71° East 527 606 37,000  Level Cleveland Center
Thu 06:21:08 AM 40.6275 -79.1661 71° East 532 612 37,000  Level Cleveland Center
Thu 06:22:08 AM 40.6750 -78.9761 72° East 537 618 37,000  Level Cleveland Center
Thu 06:23:08 AM 40.7203 -78.7886 72° East 537 618 37,000  Level Cleveland Center
Thu 06:24:08 AM 40.7708 -78.5817 72° East 537 618 37,000  Level Cleveland Center
Thu 06:25:08 AM 40.8156 -78.3964 72° East 537 618 37,000  Level Cleveland Center
Thu 06:27:25 AM 40.9158 -77.9989 71° East 527 606 37,000  Level New York Center
Thu 06:28:26 AM 40.9886 -77.8281 61° Northeast 527 606 37,000  Level New York Center
Thu 06:29:26 AM 41.0631 -77.6622 59° Northeast 527 606 37,000 -1,424 Level New York Center
Thu 06:30:24 AM 41.1353 -77.4933 60° Northeast 522 601 34,200 -2,400 Descending New York Center
Thu 06:31:26 AM 41.2114 -77.3242 59° Northeast 527 606 32,200 -2,150 Descending New York Center
Thu 06:32:24 AM 41.2897 -77.1467 60° Northeast 532 612 29,900 -1,627 Descending New York Center
Thu 06:33:24 AM 41.3658 -76.9714 60° Northeast 537 618 29,000 -942 Descending New York Center
Thu 06:34:25 AM 41.4411 -76.8014 59° Northeast 537 618 28,000 -992 Descending New York Center
Thu 06:35:25 AM 41.4983 -76.6181 67° East 537 618 27,000 -1,279 Descending New York Center
Thu 06:36:27 AM 41.4831 -76.4144 96° East 500 575 25,400 -1,613 Descending New York Center
Thu 06:37:24 AM 41.4331 -76.2386 111° Southeast 484 557 23,800 -1,692 Descending New York Center
Thu 06:38:24 AM 41.3803 -76.0686 112° Southeast 492 566 22,100 -1,500 Descending New York Center
Thu 06:39:24 AM 41.3389 -75.9244 111° Southeast 485 558 20,800 -1,537 Descending New York Center
Thu 06:40:25 AM 41.2881 -75.7492 111° Southeast 467 537 19,000 -1,438 Descending New York Center
Thu 06:41:25 AM 41.2403 -75.5939 112° Southeast 461 531 17,900 -1,714 Descending New York Center
Thu 06:42:24 AM 41.1975 -75.4614 113° Southeast 442 509 15,600 -2,950 Descending New York Center
Thu 06:43:25 AM 41.1492 -75.3175 114° Southeast 437 503 12,000 -2,754 Descending New York Center
Thu 06:44:26 AM 41.1042 -75.1850 114° Southeast 382 440 10,000 -2,319 Descending New York Center
Thu 06:45:24 AM 41.0703 -75.0836 114° Southeast 313 360 7,400 -2,034 Descending New York Center
Thu 06:46:24 AM 41.0386 -74.9856 113° Southeast 291 335 6,000 -694 Descending New York Center
Thu 06:47:25 AM 41.0061 -74.9008 117° Southeast 285 328 6,000 -541 Level New York Center
Thu 06:48:26 AM 40.9850 -74.7869 104° East 289 333 4,900 -1,240 Descending New York Center
Thu 06:49:26 AM 40.9922 -74.6967 84° East 274 315 3,500 -1,009 Descending New York Center
Thu 06:50:19 AM 41.0000 -74.6000 84° East 267 307 3,000 -280 Descending New York TRACON
Thu 06:51:13 AM 41.0000 -74.5000 90° East 268 308 3,000  Level New York TRACON
Thu 06:52:13 AM 41.0167 -74.4000 78° East 278 320 3,000  Level New York TRACON
Thu 06:53:13 AM 41.0167 -74.3000 90° East 276 318 3,000  Level New York TRACON
Thu 06:54:07 AM 41.0167 -74.2167 90° East 274 315 3,000  Level New York TRACON
Thu 06:55:07 AM 41.0167 -74.1167 90° East 251 289 3,000 -50 Level New York TRACON
Thu 06:56:07 AM 41.0000 -74.0500 108° East 216 249 2,900 -495 Descending New York TRACON
Thu 06:56:56 AM 40.9667 -74.0500 180° South 197 227 2,100 -881 Descending New York TRACON
Thu 06:57:56 AM 40.9167 -74.0333 166° South 198 228 1,300 -842 Descending New York TRACON
Thu 06:58:50 AM 40.8667 -74.0333 180° South 155 178 500 1,893 Descending New York TRACON
Thu 07:00:25 AM 40.8058 -74.0472 190° South 156 180 6,000 2,129 Climbing New York Center
Thu 07:01:25 AM 40.7639 -74.0506 183° South 156 180 6,000  Level New York Center

Login

Don't have an account? Register now (free) for customized features, flight alerts, and more!